sensor_id;sensor_type;location;lat;lon;timestamp;temperature;humidity
7240;DHT22;3661;53.288;10.458;2022-09-02T00:00:57;12.60;99.90
7240;DHT22;3661;53.288;10.458;2022-09-02T00:03:32;12.60;99.90
7240;DHT22;3661;53.288;10.458;2022-09-02T00:06:05;12.50;99.90
7240;DHT22;3661;53.288;10.458;2022-09-02T00:08:38;12.50;99.90
7240;DHT22;3661;53.288;10.458;2022-09-02T00:11:15;12.50;99.90
7240;DHT22;3661;53.288;10.458;2022-09-02T00:13:48;12.50;99.90
7240;DHT22;3661;53.288;10.458;2022-09-02T00:16:21;12.50;99.90
7240;DHT22;3661;53.288;10.458;2022-09-02T00:18:54;12.50;99.90
7240;DHT22;3661;53.288;10.458;2022-09-02T00:21:27;12.50;99.90
7240;DHT22;3661;53.288;10.458;2022-09-02T00:24:00;12.40;99.90
7240;DHT22;3661;53.288;10.458;2022-09-02T08:10:07;14.80;99.90
7240;DHT22;3661;53.288;10.458;2022-09-02T08:12:43;15.00;99.90
7240;DHT22;3661;53.288;10.458;2022-09-02T08:15:17;15.30;99.90
7240;DHT22;3661;53.288;10.458;2022-09-02T08:17:49;15.50;99.90
7240;DHT22;3661;53.288;10.458;2022-09-02T08:20:21;15.70;99.90
7240;DHT22;3661;53.288;10.458;2022-09-02T08:22:54;15.90;99.90
7240;DHT22;3661;53.288;10.458;2022-09-02T08:25:27;16.10;99.90
7240;DHT22;3661;53.288;10.458;2022-09-02T08:28:00;16.30;99.90
7240;DHT22;3661;53.288;10.458;2022-09-02T08:30:32;16.50;99.90
7240;DHT22;3661;53.288;10.458;2022-09-02T08:33:05;16.80;99.90
7240;DHT22;3661;53.288;10.458;2022-09-02T08:35:37;17.00;99.90
7240;DHT22;3661;53.288;10.458;2022-09-02T08:38:09;17.20;99.90
7240;DHT22;3661;53.288;10.458;2022-09-02T08:40:43;17.40;99.90
7240;DHT22;3661;53.288;10.458;2022-09-02T08:43:26;17.70;99.90
7240;DHT22;3661;53.288;10.458;2022-09-02T08:46:02;17.90;99.90
7240;DHT22;3661;53.288;10.458;2022-09-02T08:48:38;18.20;99.90
7240;DHT22;3661;53.288;10.458;2022-09-02T08:51:17;18.40;99.90
7240;DHT22;3661;53.288;10.458;2022-09-02T08:53:55;18.60;99.90
7240;DHT22;3661;53.288;10.458;2022-09-02T08:56:30;18.90;99.90
7240;DHT22;3661;53.288;10.458;2022-09-02T08:59:03;19.10;99.90
7240;DHT22;3661;53.288;10.458;2022-09-02T09:01:42;19.30;99.90
7240;DHT22;3661;53.288;10.458;2022-09-02T09:04:20;19.50;99.90
7240;DHT22;3661;53.288;10.458;2022-09-02T09:07:11;19.60;99.90
7240;DHT22;3661;53.288;10.458;2022-09-02T09:10:02;19.80;99.90
7240;DHT22;3661;53.288;10.458;2022-09-02T09:12:56;20.00;99.90
7240;DHT22;3661;53.288;10.458;2022-09-02T09:15:35;20.20;99.90
7240;DHT22;3661;53.288;10.458;2022-09-02T09:18:14;20.40;99.90
7240;DHT22;3661;53.288;10.458;2022-09-02T09:20:47;20.50;99.90
7240;DHT22;3661;53.288;10.458;2022-09-02T09:23:27;20.80;99.90
7240;DHT22;3661;53.288;10.458;2022-09-02T09:26:05;21.00;99.90
7240;DHT22;3661;53.288;10.458;2022-09-02T09:28:41;21.20;99.90
7240;DHT22;3661;53.288;10.458;2022-09-02T09:31:16;21.60;99.90
7240;DHT22;3661;53.288;10.458;2022-09-02T09:33:57;21.70;99.90
7240;DHT22;3661;53.288;10.458;2022-09-02T09:36:44;21.90;99.90
7240;DHT22;3661;53.288;10.458;2022-09-02T09:39:22;22.20;99.90
7240;DHT22;3661;53.288;10.458;2022-09-02T09:41:56;22.50;99.90
7240;DHT22;3661;53.288;10.458;2022-09-02T09:44:42;22.80;99.90
7240;DHT22;3661;53.288;10.458;2022-09-02T09:47:19;23.00;99.90
7240;DHT22;3661;53.288;10.458;2022-09-02T09:50:07;23.10;99.90
7240;DHT22;3661;53.288;10.458;2022-09-02T09:52:40;23.20;99.90
7240;DHT22;3661;53.288;10.458;2022-09-02T09:55:15;23.40;99.90
7240;DHT22;3661;53.288;10.458;2022-09-02T09:57:49;23.60;98.20
7240;DHT22;3661;53.288;10.458;2022-09-02T10:00:28;23.80;99.90
7240;DHT22;3661;53.288;10.458;2022-09-02T10:03:05;23.90;97.80
7240;DHT22;3661;53.288;10.458;2022-09-02T10:05:39;24.00;96.20
7240;DHT22;3661;53.288;10.458;2022-09-02T10:08:19;24.10;96.40
7240;DHT22;3661;53.288;10.458;2022-09-02T10:10:58;24.30;98.90
7240;DHT22;3661;53.288;10.458;2022-09-02T10:13:32;24.50;96.60
7240;DHT22;3661;53.288;10.458;2022-09-02T10:16:19;24.60;95.80
7240;DHT22;3661;53.288;10.458;2022-09-02T10:19:00;24.70;95.30
7240;DHT22;3661;53.288;10.458;2022-09-02T10:24:58;25.50;99.90
7240;DHT22;3661;53.288;10.458;2022-09-02T10:27:40;25.90;99.90
7240;DHT22;3661;53.288;10.458;2022-09-02T10:30:19;26.30;99.90
7240;DHT22;3661;53.288;10.458;2022-09-02T10:33:15;26.70;99.90
7240;DHT22;3661;53.288;10.458;2022-09-02T10:35:53;27.00;99.90
7240;DHT22;3661;53.288;10.458;2022-09-02T10:38:36;27.30;99.90
7240;DHT22;3661;53.288;10.458;2022-09-02T10:41:30;27.50;99.90
7240;DHT22;3661;53.288;10.458;2022-09-02T10:44:26;27.80;97.10
7240;DHT22;3661;53.288;10.458;2022-09-02T10:47:02;27.90;98.40
7240;DHT22;3661;53.288;10.458;2022-09-02T10:49:47;28.10;99.60
7240;DHT22;3661;53.288;10.458;2022-09-02T10:52:34;28.10;93.70
7240;DHT22;3661;53.288;10.458;2022-09-02T10:55:16;28.00;92.90
7240;DHT22;3661;53.288;10.458;2022-09-02T10:57:54;27.80;90.30
7240;DHT22;3661;53.288;10.458;2022-09-02T11:00:30;27.60;88.60
7240;DHT22;3661;53.288;10.458;2022-09-02T11:03:11;27.40;89.10
7240;DHT22;3661;53.288;10.458;2022-09-02T11:05:50;27.10;88.50
7240;DHT22;3661;53.288;10.458;2022-09-02T11:08:30;27.10;91.80
7240;DHT22;3661;53.288;10.458;2022-09-02T11:11:08;27.10;90.10
7240;DHT22;3661;53.288;10.458;2022-09-02T11:13:51;27.00;88.50
7240;DHT22;3661;53.288;10.458;2022-09-02T11:16:30;26.90;87.80
7240;DHT22;3661;53.288;10.458;2022-09-02T11:19:09;26.80;88.10
7240;DHT22;3661;53.288;10.458;2022-09-02T11:21:52;26.80;88.90
7240;DHT22;3661;53.288;10.458;2022-09-02T11:24:32;26.90;87.10
7240;DHT22;3661;53.288;10.458;2022-09-02T11:27:10;26.90;89.80
7240;DHT22;3661;53.288;10.458;2022-09-02T11:29:54;27.20;91.70
7240;DHT22;3661;53.288;10.458;2022-09-02T11:32:36;27.40;89.30
7240;DHT22;3661;53.288;10.458;2022-09-02T11:35:15;27.60;87.00
7240;DHT22;3661;53.288;10.458;2022-09-02T11:37:51;27.90;92.10
7240;DHT22;3661;53.288;10.458;2022-09-02T11:40:27;28.10;88.90
7240;DHT22;3661;53.288;10.458;2022-09-02T11:43:19;28.00;83.70
7240;DHT22;3661;53.288;10.458;2022-09-02T11:49:30;27.90;81.40
7240;DHT22;3661;53.288;10.458;2022-09-02T11:52:18;27.90;85.90
7240;DHT22;3661;53.288;10.458;2022-09-02T11:55:03;28.10;84.00
7240;DHT22;3661;53.288;10.458;2022-09-02T11:57:36;28.10;84.20
7240;DHT22;3661;53.288;10.458;2022-09-02T12:00:23;28.30;87.20
7240;DHT22;3661;53.288;10.458;2022-09-02T12:03:09;28.50;89.50
7240;DHT22;3661;53.288;10.458;2022-09-02T12:06:08;28.80;89.60
7240;DHT22;3661;53.288;10.458;2022-09-02T12:09:04;29.00;89.10
7240;DHT22;3661;53.288;10.458;2022-09-02T12:11:58;29.20;88.20
7240;DHT22;3661;53.288;10.458;2022-09-02T12:15:02;29.20;80.60
7240;DHT22;3661;53.288;10.458;2022-09-02T12:18:05;29.20;85.30
7240;DHT22;3661;53.288;10.458;2022-09-02T12:21:09;28.90;79.30
7240;DHT22;3661;53.288;10.458;2022-09-02T12:24:08;28.80;82.00
7240;DHT22;3661;53.288;10.458;2022-09-02T12:27:08;28.80;83.80
7240;DHT22;3661;53.288;10.458;2022-09-02T12:29:40;28.90;84.40
7240;DHT22;3661;53.288;10.458;2022-09-02T12:35:48;29.00;84.90
7240;DHT22;3661;53.288;10.458;2022-09-02T12:38:27;29.00;82.00
7240;DHT22;3661;53.288;10.458;2022-09-02T12:41:14;28.80;79.30
7240;DHT22;3661;53.288;10.458;2022-09-02T12:46:58;28.60;80.40
7240;DHT22;3661;53.288;10.458;2022-09-02T12:49:45;28.40;79.40
7240;DHT22;3661;53.288;10.458;2022-09-02T12:52:40;28.10;78.70
7240;DHT22;3661;53.288;10.458;2022-09-02T12:55:21;28.00;80.10
7240;DHT22;3661;53.288;10.458;2022-09-02T12:58:05;27.70;78.00
7240;DHT22;3661;53.288;10.458;2022-09-02T13:00:54;27.60;78.00
7240;DHT22;3661;53.288;10.458;2022-09-02T13:03:41;27.30;78.40
7240;DHT22;3661;53.288;10.458;2022-09-02T13:06:23;27.20;79.30
7240;DHT22;3661;53.288;10.458;2022-09-02T13:09:14;27.10;78.20
7240;DHT22;3661;53.288;10.458;2022-09-02T13:12:27;27.00;78.00
7240;DHT22;3661;53.288;10.458;2022-09-02T13:21:20;26.10;77.40
7240;DHT22;3661;53.288;10.458;2022-09-02T13:24:15;26.00;78.90
7240;DHT22;3661;53.288;10.458;2022-09-02T13:30:10;26.00;81.00
7240;DHT22;3661;53.288;10.458;2022-09-02T13:32:45;26.10;80.40
7240;DHT22;3661;53.288;10.458;2022-09-02T13:35:27;26.20;80.40
7240;DHT22;3661;53.288;10.458;2022-09-02T13:37:59;26.10;80.10
7240;DHT22;3661;53.288;10.458;2022-09-02T13:40:33;26.10;79.90
7240;DHT22;3661;53.288;10.458;2022-09-02T13:43:16;26.00;78.00
7240;DHT22;3661;53.288;10.458;2022-09-02T13:45:49;25.90;78.70
7240;DHT22;3661;53.288;10.458;2022-09-02T13:48:24;25.90;79.10
7240;DHT22;3661;53.288;10.458;2022-09-02T13:51:00;26.10;79.20
7240;DHT22;3661;53.288;10.458;2022-09-02T13:53:39;26.10;77.60
7240;DHT22;3661;53.288;10.458;2022-09-02T13:56:13;26.10;78.10
7240;DHT22;3661;53.288;10.458;2022-09-02T13:58:51;26.20;79.40
7240;DHT22;3661;53.288;10.458;2022-09-02T14:01:28;26.50;79.20
7240;DHT22;3661;53.288;10.458;2022-09-02T14:04:03;26.70;77.80
7240;DHT22;3661;53.288;10.458;2022-09-02T14:06:40;26.90;79.40
7240;DHT22;3661;53.288;10.458;2022-09-02T14:09:19;27.00;78.00
7240;DHT22;3661;53.288;10.458;2022-09-02T14:11:53;27.00;76.00
7240;DHT22;3661;53.288;10.458;2022-09-02T14:14:26;26.90;76.40
7240;DHT22;3661;53.288;10.458;2022-09-02T14:17:16;26.90;76.50
7240;DHT22;3661;53.288;10.458;2022-09-02T14:19:50;27.00;76.80
7240;DHT22;3661;53.288;10.458;2022-09-02T14:22:27;27.10;76.80
7240;DHT22;3661;53.288;10.458;2022-09-02T14:24:59;27.10;76.00
7240;DHT22;3661;53.288;10.458;2022-09-02T14:27:31;27.20;75.90
7240;DHT22;3661;53.288;10.458;2022-09-02T14:30:05;27.30;76.60
7240;DHT22;3661;53.288;10.458;2022-09-02T14:32:39;27.30;76.00
7240;DHT22;3661;53.288;10.458;2022-09-02T14:35:20;27.40;76.50
7240;DHT22;3661;53.288;10.458;2022-09-02T14:37:55;27.40;76.70
7240;DHT22;3661;53.288;10.458;2022-09-02T14:40:33;27.50;76.40
7240;DHT22;3661;53.288;10.458;2022-09-02T14:43:11;27.50;75.40
7240;DHT22;3661;53.288;10.458;2022-09-02T14:45:46;27.40;76.30
7240;DHT22;3661;53.288;10.458;2022-09-02T14:48:21;27.40;76.00
7240;DHT22;3661;53.288;10.458;2022-09-02T14:50:57;27.50;76.20
7240;DHT22;3661;53.288;10.458;2022-09-02T14:53:33;27.50;76.40
7240;DHT22;3661;53.288;10.458;2022-09-02T14:56:07;27.60;76.30
7240;DHT22;3661;53.288;10.458;2022-09-02T14:58:40;27.60;75.60
7240;DHT22;3661;53.288;10.458;2022-09-02T15:01:12;27.50;75.00
7240;DHT22;3661;53.288;10.458;2022-09-02T15:03:45;27.40;74.40
7240;DHT22;3661;53.288;10.458;2022-09-02T15:06:20;27.40;74.70
7240;DHT22;3661;53.288;10.458;2022-09-02T15:08:53;27.30;75.20
7240;DHT22;3661;53.288;10.458;2022-09-02T15:11:25;27.30;74.50
7240;DHT22;3661;53.288;10.458;2022-09-02T15:13:58;27.10;75.10
7240;DHT22;3661;53.288;10.458;2022-09-02T15:16:30;27.10;74.70
7240;DHT22;3661;53.288;10.458;2022-09-02T15:19:02;26.90;74.50
7240;DHT22;3661;53.288;10.458;2022-09-02T15:21:35;26.80;75.10
7240;DHT22;3661;53.288;10.458;2022-09-02T15:24:08;26.70;74.70
7240;DHT22;3661;53.288;10.458;2022-09-02T15:26:41;26.70;74.80
7240;DHT22;3661;53.288;10.458;2022-09-02T15:29:13;26.50;74.60
7240;DHT22;3661;53.288;10.458;2022-09-02T15:31:46;26.40;74.60
7240;DHT22;3661;53.288;10.458;2022-09-02T15:34:20;26.40;75.30
7240;DHT22;3661;53.288;10.458;2022-09-02T15:36:53;26.40;75.30
7240;DHT22;3661;53.288;10.458;2022-09-02T15:39:28;26.40;75.60
7240;DHT22;3661;53.288;10.458;2022-09-02T15:42:00;26.40;76.00
7240;DHT22;3661;53.288;10.458;2022-09-02T15:44:32;26.40;75.40
7240;DHT22;3661;53.288;10.458;2022-09-02T15:47:05;26.30;75.00
7240;DHT22;3661;53.288;10.458;2022-09-02T15:49:37;26.20;74.70
7240;DHT22;3661;53.288;10.458;2022-09-02T15:52:09;26.10;74.70
7240;DHT22;3661;53.288;10.458;2022-09-02T15:55:00;26.00;74.50
7240;DHT22;3661;53.288;10.458;2022-09-02T15:58:09;25.80;74.50
7240;DHT22;3661;53.288;10.458;2022-09-02T16:00:45;25.50;74.40
7240;DHT22;3661;53.288;10.458;2022-09-02T16:03:17;25.40;74.50
7240;DHT22;3661;53.288;10.458;2022-09-02T16:05:50;25.20;75.00
7240;DHT22;3661;53.288;10.458;2022-09-02T16:08:22;25.20;75.00
7240;DHT22;3661;53.288;10.458;2022-09-02T16:11:02;25.00;75.00
7240;DHT22;3661;53.288;10.458;2022-09-02T16:13:37;25.00;75.10
7240;DHT22;3661;53.288;10.458;2022-09-02T16:16:10;24.90;75.10
7240;DHT22;3661;53.288;10.458;2022-09-02T16:18:47;24.80;75.20
7240;DHT22;3661;53.288;10.458;2022-09-02T16:21:20;24.60;74.80
7240;DHT22;3661;53.288;10.458;2022-09-02T16:23:53;24.50;74.90
7240;DHT22;3661;53.288;10.458;2022-09-02T16:26:28;24.40;75.00
7240;DHT22;3661;53.288;10.458;2022-09-02T16:29:05;24.30;75.10
7240;DHT22;3661;53.288;10.458;2022-09-02T16:31:39;24.30;75.60
7240;DHT22;3661;53.288;10.458;2022-09-02T16:34:17;24.20;75.70
7240;DHT22;3661;53.288;10.458;2022-09-02T16:37:04;24.20;75.90
7240;DHT22;3661;53.288;10.458;2022-09-02T16:39:38;24.10;75.60
7240;DHT22;3661;53.288;10.458;2022-09-02T16:42:11;23.90;75.80
7240;DHT22;3661;53.288;10.458;2022-09-02T16:44:43;23.90;76.10
7240;DHT22;3661;53.288;10.458;2022-09-02T16:47:16;23.70;77.00
7240;DHT22;3661;53.288;10.458;2022-09-02T16:49:48;23.70;76.60
7240;DHT22;3661;53.288;10.458;2022-09-02T16:52:20;23.60;76.70
7240;DHT22;3661;53.288;10.458;2022-09-02T16:54:53;23.50;76.70
7240;DHT22;3661;53.288;10.458;2022-09-02T16:57:26;23.40;76.80
7240;DHT22;3661;53.288;10.458;2022-09-02T17:00:01;23.30;77.00
7240;DHT22;3661;53.288;10.458;2022-09-02T17:02:33;23.20;77.10
7240;DHT22;3661;53.288;10.458;2022-09-02T17:05:06;23.10;77.00
7240;DHT22;3661;53.288;10.458;2022-09-02T17:07:40;23.00;76.70
7240;DHT22;3661;53.288;10.458;2022-09-02T17:10:17;22.90;77.10
7240;DHT22;3661;53.288;10.458;2022-09-02T17:12:53;22.80;77.10
7240;DHT22;3661;53.288;10.458;2022-09-02T17:15:25;22.70;77.50
7240;DHT22;3661;53.288;10.458;2022-09-02T17:17:58;22.60;77.90
7240;DHT22;3661;53.288;10.458;2022-09-02T17:20:30;22.50;78.30
7240;DHT22;3661;53.288;10.458;2022-09-02T17:23:02;22.40;78.20
7240;DHT22;3661;53.288;10.458;2022-09-02T17:25:34;22.30;78.40
7240;DHT22;3661;53.288;10.458;2022-09-02T17:28:10;22.20;78.50
7240;DHT22;3661;53.288;10.458;2022-09-02T17:30:42;22.10;78.70
7240;DHT22;3661;53.288;10.458;2022-09-02T17:33:14;22.00;79.10
7240;DHT22;3661;53.288;10.458;2022-09-02T17:36:01;21.90;79.30
7240;DHT22;3661;53.288;10.458;2022-09-02T17:38:35;21.80;79.70
7240;DHT22;3661;53.288;10.458;2022-09-02T17:41:07;21.70;79.70
7240;DHT22;3661;53.288;10.458;2022-09-02T17:43:58;21.70;79.80
7240;DHT22;3661;53.288;10.458;2022-09-02T17:46:31;21.50;79.80
7240;DHT22;3661;53.288;10.458;2022-09-02T17:49:03;21.40;80.10
7240;DHT22;3661;53.288;10.458;2022-09-02T17:51:38;21.40;80.60
7240;DHT22;3661;53.288;10.458;2022-09-02T17:54:12;21.20;80.60
7240;DHT22;3661;53.288;10.458;2022-09-02T18:00:27;21.00;80.70
7240;DHT22;3661;53.288;10.458;2022-09-02T18:03:26;20.90;81.10
7240;DHT22;3661;53.288;10.458;2022-09-02T18:06:12;20.80;81.40
7240;DHT22;3661;53.288;10.458;2022-09-02T18:08:50;20.70;81.50
7240;DHT22;3661;53.288;10.458;2022-09-02T18:11:25;20.60;81.60
7240;DHT22;3661;53.288;10.458;2022-09-02T18:14:08;20.50;81.50
7240;DHT22;3661;53.288;10.458;2022-09-02T18:16:56;20.50;81.80
7240;DHT22;3661;53.288;10.458;2022-09-02T18:19:47;20.30;81.90
7240;DHT22;3661;53.288;10.458;2022-09-02T18:25:32;20.20;82.40
7240;DHT22;3661;53.288;10.458;2022-09-02T18:28:15;20.10;82.60
7240;DHT22;3661;53.288;10.458;2022-09-02T18:30:54;20.00;82.60
7240;DHT22;3661;53.288;10.458;2022-09-02T18:33:39;19.90;82.60
7240;DHT22;3661;53.288;10.458;2022-09-02T18:36:25;19.80;82.80
7240;DHT22;3661;53.288;10.458;2022-09-02T18:39:14;19.70;82.80
7240;DHT22;3661;53.288;10.458;2022-09-02T18:41:59;19.70;83.20
7240;DHT22;3661;53.288;10.458;2022-09-02T18:44:36;19.60;83.40
7240;DHT22;3661;53.288;10.458;2022-09-02T18:47:15;19.50;83.60
7240;DHT22;3661;53.288;10.458;2022-09-02T18:49:51;19.50;83.70
7240;DHT22;3661;53.288;10.458;2022-09-02T18:52:28;19.40;83.90
7240;DHT22;3661;53.288;10.458;2022-09-02T18:55:06;19.40;84.20
7240;DHT22;3661;53.288;10.458;2022-09-02T18:57:44;19.30;84.00
7240;DHT22;3661;53.288;10.458;2022-09-02T19:00:19;19.20;84.60
7240;DHT22;3661;53.288;10.458;2022-09-02T19:02:56;19.20;85.30
7240;DHT22;3661;53.288;10.458;2022-09-02T19:05:33;19.20;84.80
7240;DHT22;3661;53.288;10.458;2022-09-02T19:08:08;19.10;85.00
7240;DHT22;3661;53.288;10.458;2022-09-02T19:11:02;19.10;85.20
7240;DHT22;3661;53.288;10.458;2022-09-02T19:13:45;19.00;85.20
7240;DHT22;3661;53.288;10.458;2022-09-02T19:16:19;19.00;85.40
7240;DHT22;3661;53.288;10.458;2022-09-02T19:18:51;18.90;85.50
7240;DHT22;3661;53.288;10.458;2022-09-02T19:21:29;18.90;85.70
7240;DHT22;3661;53.288;10.458;2022-09-02T19:24:05;18.90;85.70
7240;DHT22;3661;53.288;10.458;2022-09-02T19:26:39;18.80;85.70
7240;DHT22;3661;53.288;10.458;2022-09-02T19:29:17;18.80;86.00
7240;DHT22;3661;53.288;10.458;2022-09-02T19:31:51;18.80;86.30
7240;DHT22;3661;53.288;10.458;2022-09-02T19:34:24;18.70;86.20
7240;DHT22;3661;53.288;10.458;2022-09-02T19:37:03;18.70;86.40
7240;DHT22;3661;53.288;10.458;2022-09-02T19:39:36;18.60;86.60
7240;DHT22;3661;53.288;10.458;2022-09-02T19:42:08;18.60;86.70
7240;DHT22;3661;53.288;10.458;2022-09-02T19:44:40;18.50;86.80
7240;DHT22;3661;53.288;10.458;2022-09-02T19:47:12;18.50;86.80
7240;DHT22;3661;53.288;10.458;2022-09-02T19:49:45;18.40;86.80
7240;DHT22;3661;53.288;10.458;2022-09-02T19:52:18;18.30;86.30
7240;DHT22;3661;53.288;10.458;2022-09-02T19:54:53;18.30;87.30
7240;DHT22;3661;53.288;10.458;2022-09-02T19:57:35;18.20;87.40
7240;DHT22;3661;53.288;10.458;2022-09-02T20:00:09;18.20;87.70
7240;DHT22;3661;53.288;10.458;2022-09-02T20:02:42;18.10;87.20
7240;DHT22;3661;53.288;10.458;2022-09-02T20:05:14;18.00;87.80
7240;DHT22;3661;53.288;10.458;2022-09-02T20:07:52;18.00;88.00
7240;DHT22;3661;53.288;10.458;2022-09-02T20:10:24;18.00;88.40
7240;DHT22;3661;53.288;10.458;2022-09-02T20:12:57;17.90;88.40
7240;DHT22;3661;53.288;10.458;2022-09-02T20:15:30;17.90;88.60
7240;DHT22;3661;53.288;10.458;2022-09-02T20:18:08;17.80;88.60
7240;DHT22;3661;53.288;10.458;2022-09-02T20:20:42;17.80;89.00
7240;DHT22;3661;53.288;10.458;2022-09-02T20:23:18;17.70;88.30
7240;DHT22;3661;53.288;10.458;2022-09-02T20:26:10;17.60;88.90
7240;DHT22;3661;53.288;10.458;2022-09-02T20:28:56;17.60;89.00
7240;DHT22;3661;53.288;10.458;2022-09-02T20:31:40;17.50;88.90
7240;DHT22;3661;53.288;10.458;2022-09-02T20:34:23;17.50;89.70
7240;DHT22;3661;53.288;10.458;2022-09-02T20:37:06;17.40;89.80
7240;DHT22;3661;53.288;10.458;2022-09-02T20:39:54;17.30;90.10
7240;DHT22;3661;53.288;10.458;2022-09-02T20:42:53;17.30;90.10
7240;DHT22;3661;53.288;10.458;2022-09-02T20:45:35;17.20;90.10
7240;DHT22;3661;53.288;10.458;2022-09-02T20:48:19;17.10;90.00
7240;DHT22;3661;53.288;10.458;2022-09-02T20:51:00;17.10;90.30
7240;DHT22;3661;53.288;10.458;2022-09-02T20:53:52;17.00;90.20
7240;DHT22;3661;53.288;10.458;2022-09-02T20:56:36;16.90;90.50
7240;DHT22;3661;53.288;10.458;2022-09-02T20:59:18;16.90;90.80
7240;DHT22;3661;53.288;10.458;2022-09-02T21:01:56;16.80;90.80
7240;DHT22;3661;53.288;10.458;2022-09-02T21:04:35;16.80;90.80
7240;DHT22;3661;53.288;10.458;2022-09-02T21:07:11;16.70;90.80
7240;DHT22;3661;53.288;10.458;2022-09-02T21:09:49;16.70;91.10
7240;DHT22;3661;53.288;10.458;2022-09-02T21:12:27;16.60;90.90
7240;DHT22;3661;53.288;10.458;2022-09-02T21:15:08;16.50;91.00
7240;DHT22;3661;53.288;10.458;2022-09-02T21:17:45;16.50;91.10
7240;DHT22;3661;53.288;10.458;2022-09-02T21:20:21;16.40;91.40
7240;DHT22;3661;53.288;10.458;2022-09-02T21:23:21;16.40;91.50
7240;DHT22;3661;53.288;10.458;2022-09-02T21:26:03;16.30;91.30
7240;DHT22;3661;53.288;10.458;2022-09-02T21:28:41;16.30;91.70
7240;DHT22;3661;53.288;10.458;2022-09-02T21:31:23;16.20;91.60
7240;DHT22;3661;53.288;10.458;2022-09-02T21:34:01;16.20;92.10
7240;DHT22;3661;53.288;10.458;2022-09-02T21:36:36;16.20;91.80
7240;DHT22;3661;53.288;10.458;2022-09-02T21:39:14;16.10;91.90
7240;DHT22;3661;53.288;10.458;2022-09-02T21:41:54;16.10;92.00
7240;DHT22;3661;53.288;10.458;2022-09-02T21:44:35;16.10;92.20
7240;DHT22;3661;53.288;10.458;2022-09-02T21:47:18;16.10;92.20
7240;DHT22;3661;53.288;10.458;2022-09-02T21:50:02;16.10;92.30
7240;DHT22;3661;53.288;10.458;2022-09-02T21:52:45;16.00;92.30
7240;DHT22;3661;53.288;10.458;2022-09-02T21:55:43;16.00;92.60
7240;DHT22;3661;53.288;10.458;2022-09-02T21:58:30;16.00;92.30
7240;DHT22;3661;53.288;10.458;2022-09-02T22:01:08;16.00;92.40
7240;DHT22;3661;53.288;10.458;2022-09-02T22:03:47;16.00;92.50
7240;DHT22;3661;53.288;10.458;2022-09-02T22:06:27;16.00;92.50
7240;DHT22;3661;53.288;10.458;2022-09-02T22:09:05;16.00;92.50
7240;DHT22;3661;53.288;10.458;2022-09-02T22:11:44;16.00;92.60
7240;DHT22;3661;53.288;10.458;2022-09-02T22:14:22;16.00;92.80
7240;DHT22;3661;53.288;10.458;2022-09-02T22:17:01;16.00;92.80
7240;DHT22;3661;53.288;10.458;2022-09-02T22:19:37;15.90;92.70
7240;DHT22;3661;53.288;10.458;2022-09-02T22:22:15;15.90;92.80
7240;DHT22;3661;53.288;10.458;2022-09-02T22:24:48;15.90;93.00
7240;DHT22;3661;53.288;10.458;2022-09-02T22:27:25;15.90;92.80
7240;DHT22;3661;53.288;10.458;2022-09-02T22:30:02;15.80;92.90
7240;DHT22;3661;53.288;10.458;2022-09-02T22:32:39;15.80;93.10
7240;DHT22;3661;53.288;10.458;2022-09-02T22:35:17;15.80;93.00
7240;DHT22;3661;53.288;10.458;2022-09-02T22:38:00;15.80;93.10
7240;DHT22;3661;53.288;10.458;2022-09-02T22:40:40;15.70;93.10
7240;DHT22;3661;53.288;10.458;2022-09-02T22:43:18;15.70;93.20
7240;DHT22;3661;53.288;10.458;2022-09-02T22:45:55;15.70;93.20
7240;DHT22;3661;53.288;10.458;2022-09-02T22:48:48;15.60;93.20
7240;DHT22;3661;53.288;10.458;2022-09-02T22:51:45;15.60;93.30
7240;DHT22;3661;53.288;10.458;2022-09-02T22:54:35;15.50;93.50
7240;DHT22;3661;53.288;10.458;2022-09-02T22:57:12;15.50;93.80
7240;DHT22;3661;53.288;10.458;2022-09-02T22:59:56;15.50;93.60
7240;DHT22;3661;53.288;10.458;2022-09-02T23:02:35;15.50;93.80
7240;DHT22;3661;53.288;10.458;2022-09-02T23:05:24;15.40;94.00
7240;DHT22;3661;53.288;10.458;2022-09-02T23:08:16;15.40;93.70
7240;DHT22;3661;53.288;10.458;2022-09-02T23:10:53;15.30;93.70
7240;DHT22;3661;53.288;10.458;2022-09-02T23:13:42;15.30;93.80
7240;DHT22;3661;53.288;10.458;2022-09-02T23:16:23;15.30;94.00
7240;DHT22;3661;53.288;10.458;2022-09-02T23:19:07;15.20;94.10
7240;DHT22;3661;53.288;10.458;2022-09-02T23:21:45;15.20;94.00
7240;DHT22;3661;53.288;10.458;2022-09-02T23:24:32;15.20;94.10
7240;DHT22;3661;53.288;10.458;2022-09-02T23:27:11;15.10;94.10
7240;DHT22;3661;53.288;10.458;2022-09-02T23:29:45;15.10;94.20
7240;DHT22;3661;53.288;10.458;2022-09-02T23:32:38;15.00;94.30
7240;DHT22;3661;53.288;10.458;2022-09-02T23:35:19;15.00;94.40
7240;DHT22;3661;53.288;10.458;2022-09-02T23:38:22;15.00;94.40
7240;DHT22;3661;53.288;10.458;2022-09-02T23:41:05;14.90;94.40
7240;DHT22;3661;53.288;10.458;2022-09-02T23:43:38;14.90;94.40
7240;DHT22;3661;53.288;10.458;2022-09-02T23:46:21;14.90;94.70
7240;DHT22;3661;53.288;10.458;2022-09-02T23:49:03;14.90;94.50
7240;DHT22;3661;53.288;10.458;2022-09-02T23:51:42;14.80;94.60
7240;DHT22;3661;53.288;10.458;2022-09-02T23:57:36;14.80;95.00
